createdAt,value
2022-08-02T00:00:08.770Z,46.25
2022-08-02T00:01:08.781Z,47.37
2022-08-02T00:02:09.009Z,47.53
2022-08-02T00:03:08.699Z,48.66
2022-08-02T00:04:08.719Z,48.66
2022-08-02T00:05:08.660Z,52.69
2022-08-02T00:06:09.786Z,50.11
2022-08-02T00:07:08.707Z,49.95
2022-08-02T00:08:08.634Z,50.11
2022-08-02T00:09:08.701Z,49.79
2022-08-02T00:10:08.656Z,50.43
2022-08-02T00:11:08.659Z,49.79
2022-08-02T00:12:08.965Z,50.76
2022-08-02T00:13:08.595Z,50.11
2022-08-02T00:14:08.622Z,50.76
2022-08-02T00:15:42.716Z,49.63
2022-08-02T00:16:08.507Z,50.60
2022-08-02T00:17:08.598Z,50.43
2022-08-02T00:18:08.602Z,50.43
2022-08-02T00:19:08.613Z,53.17
2022-08-02T00:20:08.566Z,50.27
2022-08-02T00:21:08.708Z,49.63
2022-08-02T00:22:09.138Z,49.95
2022-08-02T00:23:08.616Z,49.79
2022-08-02T00:24:30.082Z,51.72
2022-08-02T00:25:09.581Z,51.56
2022-08-02T00:26:08.491Z,49.79
2022-08-02T00:27:09.152Z,49.15
2022-08-02T00:28:08.468Z,49.31
2022-08-02T00:29:08.435Z,49.79
2022-08-02T00:30:08.425Z,50.43
2022-08-02T00:31:08.436Z,49.95
2022-08-02T00:32:08.732Z,48.34
2022-08-02T00:33:08.418Z,49.47
2022-08-02T00:34:28.674Z,48.98
2022-08-02T00:35:09.410Z,49.47
2022-08-02T00:36:08.422Z,48.66
2022-08-02T00:37:08.391Z,48.98
2022-08-02T00:38:08.387Z,49.15
2022-08-02T00:39:08.354Z,51.24
2022-08-02T00:40:09.381Z,51.40
2022-08-02T00:41:08.368Z,49.79
2022-08-02T00:42:08.669Z,49.79
2022-08-02T00:43:08.356Z,49.15
2022-08-02T00:44:08.301Z,49.79
2022-08-02T00:45:08.436Z,49.79
2022-08-02T00:46:08.447Z,49.95
2022-08-02T00:47:08.394Z,50.27
2022-08-02T00:48:08.343Z,52.21
2022-08-02T00:49:08.415Z,51.24
2022-08-02T00:50:08.388Z,52.05
2022-08-02T00:51:08.361Z,51.24
2022-08-02T00:52:08.624Z,50.76
2022-08-02T00:53:08.369Z,53.33
2022-08-02T00:54:08.336Z,51.88
2022-08-02T00:55:08.346Z,52.05
2022-08-02T00:56:08.318Z,51.56
2022-08-02T00:57:08.330Z,52.37
2022-08-02T00:58:08.304Z,52.05
2022-08-02T00:59:08.293Z,51.88
2022-08-02T01:00:08.302Z,51.88
2022-08-02T01:01:08.371Z,52.53
2022-08-02T01:02:08.346Z,51.40
2022-08-02T01:03:08.355Z,51.40
2022-08-02T01:04:08.270Z,50.43
2022-08-02T01:05:08.284Z,50.76
2022-08-02T01:06:11.739Z,50.92
2022-08-02T01:07:13.187Z,50.92
2022-08-02T01:08:08.307Z,52.37
2022-08-02T01:09:08.223Z,50.60
2022-08-02T01:10:08.191Z,50.43
2022-08-02T01:11:08.185Z,52.69
2022-08-02T01:12:08.465Z,52.85
2022-08-02T01:13:08.169Z,52.37
2022-08-02T01:14:08.098Z,51.56
2022-08-02T01:19:54.065Z,53.01
2022-08-02T01:20:53.958Z,51.72
2022-08-02T01:21:54.090Z,51.24
2022-08-02T01:23:02.540Z,51.72
2022-08-02T01:23:56.122Z,51.72
2022-08-02T01:24:54.002Z,53.50
2022-08-02T01:25:53.956Z,50.76
2022-08-02T01:26:53.966Z,51.24
2022-08-02T01:27:53.966Z,50.43
2022-08-02T01:28:53.987Z,51.40
2022-08-02T01:29:53.957Z,51.24
2022-08-02T01:30:53.960Z,50.92
2022-08-02T01:31:53.951Z,51.40
2022-08-02T01:32:53.957Z,51.40
2022-08-02T01:33:53.915Z,50.92
2022-08-02T01:34:53.955Z,50.92
2022-08-02T01:35:53.908Z,51.56
2022-08-02T01:36:53.905Z,50.43
2022-08-02T01:37:53.902Z,50.27
2022-08-02T01:38:53.778Z,53.01
2022-08-02T01:39:53.816Z,51.40
2022-08-02T01:40:53.778Z,51.72
2022-08-02T01:41:58.889Z,51.56
2022-08-02T01:42:53.777Z,51.08
2022-08-02T01:43:53.789Z,50.43
2022-08-02T01:44:53.802Z,50.92
2022-08-02T01:45:53.732Z,52.69
2022-08-02T01:46:53.719Z,50.60
2022-08-02T01:47:53.738Z,51.08
2022-08-02T01:48:53.781Z,51.40
2022-08-02T01:49:53.734Z,50.60
2022-08-02T01:50:53.826Z,51.08
2022-08-02T01:51:53.849Z,52.05
2022-08-02T01:52:54.000Z,51.08
2022-08-02T01:53:53.791Z,50.43
2022-08-02T01:54:53.752Z,50.43
2022-08-02T01:55:57.025Z,50.76
2022-08-02T01:56:53.676Z,51.88
2022-08-02T01:57:53.767Z,51.72
2022-08-02T01:58:53.753Z,50.92
2022-08-02T01:59:53.759Z,51.72
2022-08-02T02:00:53.818Z,52.53
2022-08-02T02:01:53.806Z,53.17
2022-08-02T02:02:53.756Z,50.92
2022-08-02T02:03:54.606Z,53.50
2022-08-02T02:04:53.675Z,53.33
2022-08-02T02:05:53.747Z,52.85
2022-08-02T02:06:53.727Z,52.21
2022-08-02T02:07:53.652Z,51.72
2022-08-02T02:08:53.711Z,52.37
2022-08-02T02:09:53.636Z,53.50
2022-08-02T02:10:53.652Z,50.92
2022-08-02T02:12:09.617Z,51.08
2022-08-02T02:12:55.579Z,51.24
2022-08-02T02:13:53.601Z,52.05
2022-08-02T02:14:53.626Z,52.69
2022-08-02T02:15:53.627Z,52.05
2022-08-02T02:16:53.694Z,53.66
2022-08-02T02:18:11.629Z,54.46
2022-08-02T02:18:54.536Z,52.37
2022-08-02T02:19:53.580Z,52.05
2022-08-02T02:20:53.601Z,51.72
2022-08-02T02:21:53.614Z,53.50
2022-08-02T02:22:53.570Z,51.72
2022-08-02T02:23:53.555Z,53.01
2022-08-02T02:24:53.564Z,53.50
2022-08-02T02:25:54.952Z,53.17
2022-08-02T02:26:53.594Z,53.17
2022-08-02T02:27:53.567Z,52.85
2022-08-02T02:28:53.550Z,53.01
2022-08-02T02:29:53.540Z,53.82
2022-08-02T02:30:53.505Z,53.33
2022-08-02T02:31:53.488Z,51.56
2022-08-02T02:32:53.473Z,50.92
2022-08-02T02:33:53.407Z,50.92
2022-08-02T02:34:53.429Z,50.76
2022-08-02T02:35:53.410Z,52.05
2022-08-02T02:36:53.393Z,52.53
2022-08-02T02:37:53.362Z,52.69
2022-08-02T02:38:53.364Z,53.98
2022-08-02T02:39:53.335Z,51.56
2022-08-02T02:40:53.315Z,52.37
2022-08-02T02:41:53.377Z,53.66
2022-08-02T02:42:53.319Z,55.43
2022-08-02T02:43:53.490Z,56.07
2022-08-02T02:44:53.386Z,53.66
2022-08-02T02:45:54.420Z,52.37
2022-08-02T02:46:53.330Z,51.24
2022-08-02T02:47:53.417Z,52.53
2022-08-02T02:48:53.430Z,55.11
2022-08-02T02:49:53.477Z,52.69
2022-08-02T02:50:53.348Z,57.04
2022-08-02T02:51:53.335Z,56.24
2022-08-02T02:52:53.320Z,54.62
2022-08-02T02:54:30.653Z,54.46
2022-08-02T02:54:54.292Z,54.79
2022-08-02T02:56:25.309Z,55.27
2022-08-02T02:57:25.603Z,57.20
2022-08-02T02:57:53.188Z,55.91
2022-08-02T02:58:53.271Z,55.91
2022-08-02T03:00:26.405Z,53.66
2022-08-02T03:04:02.669Z,52.53
2022-08-02T03:05:35.548Z,52.05
2022-08-02T03:06:02.752Z,54.46
2022-08-02T03:07:03.531Z,53.33
2022-08-02T03:11:01.106Z,57.20
2022-08-02T03:12:01.089Z,56.72
2022-08-02T03:13:01.047Z,53.98
2022-08-02T03:14:01.068Z,53.50
2022-08-02T03:15:01.033Z,56.40
2022-08-02T03:16:01.206Z,57.20
2022-08-02T03:17:01.018Z,53.17
2022-08-02T03:18:00.970Z,53.01
2022-08-02T03:19:01.005Z,55.11
2022-08-02T03:20:00.972Z,53.50
2022-08-02T03:21:00.983Z,54.46
2022-08-02T03:22:01.024Z,53.98
2022-08-02T03:23:00.956Z,57.69
2022-08-02T03:24:00.950Z,56.40
2022-08-02T03:25:00.963Z,55.75
2022-08-02T03:26:01.943Z,55.43
2022-08-02T03:27:00.956Z,54.62
2022-08-02T03:28:00.930Z,55.27
2022-08-02T03:29:00.922Z,56.72
2022-08-02T03:30:01.948Z,55.91
2022-08-02T03:31:00.915Z,56.07
2022-08-02T03:32:00.968Z,56.72
2022-08-02T03:33:00.977Z,55.43
2022-08-02T03:34:00.898Z,57.52
2022-08-02T03:35:00.947Z,58.97
2022-08-02T03:36:00.897Z,54.46
2022-08-02T03:37:00.925Z,54.79
2022-08-02T03:38:00.913Z,54.95
2022-08-02T03:39:00.868Z,59.46
2022-08-02T03:40:00.867Z,57.20
2022-08-02T03:41:00.833Z,55.91
2022-08-02T03:42:00.748Z,58.17
2022-08-02T03:43:00.858Z,57.85
2022-08-02T03:44:00.814Z,56.88
2022-08-02T03:45:04.954Z,57.20
2022-08-02T03:46:01.729Z,58.17
2022-08-02T03:47:00.712Z,55.59
2022-08-02T03:48:00.762Z,57.85
2022-08-02T03:49:00.798Z,56.40
2022-08-02T03:50:00.734Z,56.72
2022-08-02T03:51:00.688Z,57.04
2022-08-02T03:52:00.699Z,57.52
2022-08-02T03:53:00.656Z,59.30
2022-08-02T03:54:00.705Z,57.36
2022-08-02T03:55:00.671Z,57.52
2022-08-02T03:56:00.649Z,57.52
2022-08-02T03:57:00.664Z,56.07
2022-08-02T03:58:00.620Z,57.36
2022-08-02T03:59:00.708Z,57.20
2022-08-02T04:00:00.647Z,59.94
2022-08-02T04:01:00.770Z,56.24
2022-08-02T04:02:03.453Z,58.65
2022-08-02T04:03:00.620Z,57.20
2022-08-02T04:04:00.722Z,56.40
2022-08-02T04:05:00.661Z,56.07
2022-08-02T04:06:04.345Z,57.04
2022-08-02T04:07:00.653Z,57.04
2022-08-02T04:08:33.018Z,56.07
2022-08-02T04:09:01.611Z,56.07
2022-08-02T04:10:00.674Z,57.20
2022-08-02T04:11:00.659Z,54.95
2022-08-02T04:12:00.617Z,55.59
2022-08-02T04:13:00.669Z,56.07
2022-08-02T04:14:00.588Z,56.24
2022-08-02T04:15:00.662Z,54.79
2022-08-02T04:16:00.594Z,56.56
2022-08-02T04:17:00.594Z,54.62
2022-08-02T04:18:00.595Z,55.59
2022-08-02T04:19:00.606Z,56.24
2022-08-02T04:20:00.603Z,57.69
2022-08-02T04:21:00.621Z,55.43
2022-08-02T04:22:00.591Z,55.11
2022-08-02T04:23:00.557Z,54.95
2022-08-02T04:24:00.466Z,54.46
2022-08-02T04:25:00.488Z,55.27
2022-08-02T04:26:00.437Z,56.56
2022-08-02T04:27:06.452Z,58.01
2022-08-02T04:28:17.538Z,58.65
2022-08-02T04:29:01.426Z,57.20
2022-08-02T04:30:00.427Z,57.85
2022-08-02T04:31:00.459Z,57.69
2022-08-02T04:32:00.451Z,56.07
2022-08-02T04:33:00.401Z,56.07
2022-08-02T04:34:00.384Z,55.91
2022-08-02T04:35:18.821Z,58.01
2022-08-02T04:36:02.408Z,56.07
2022-08-02T04:37:00.402Z,56.40
2022-08-02T04:38:05.538Z,56.07
2022-08-02T04:39:01.374Z,55.27
2022-08-02T04:40:00.464Z,57.20
2022-08-02T04:41:00.472Z,58.33
2022-08-02T04:42:00.340Z,57.52
2022-08-02T04:43:00.440Z,57.20
2022-08-02T04:44:00.472Z,58.01
2022-08-02T04:45:00.386Z,57.69
2022-08-02T04:46:00.346Z,56.56
2022-08-02T04:47:06.132Z,55.27
2022-08-02T04:48:04.967Z,57.04
2022-08-02T04:49:01.301Z,58.33
2022-08-02T04:50:00.369Z,56.56
2022-08-02T04:51:00.373Z,56.40
2022-08-02T04:52:00.377Z,55.91
2022-08-02T04:53:00.343Z,57.04
2022-08-02T04:54:06.430Z,56.40
2022-08-02T04:55:01.233Z,55.43
2022-08-02T04:56:00.336Z,54.46
2022-08-02T04:57:00.330Z,56.07
2022-08-02T04:58:03.679Z,57.04
2022-08-02T04:59:01.238Z,55.11
2022-08-02T05:00:00.269Z,55.43
2022-08-02T05:01:00.346Z,57.04
2022-08-02T05:02:12.860Z,55.27
2022-08-02T05:03:01.209Z,54.46
2022-08-02T05:04:00.250Z,55.75
2022-08-02T05:05:00.284Z,54.95
2022-08-02T05:06:00.272Z,56.88
2022-08-02T05:07:00.215Z,55.11
2022-08-02T05:08:00.247Z,55.27
2022-08-02T05:09:00.212Z,55.11
2022-08-02T05:10:00.230Z,55.11
2022-08-02T05:11:00.213Z,54.95
2022-08-02T05:12:00.193Z,55.43
2022-08-02T05:13:00.212Z,55.11
2022-08-02T05:14:00.213Z,54.62
2022-08-02T05:15:00.166Z,54.79
2022-08-02T05:16:00.139Z,55.59
2022-08-02T05:17:00.129Z,56.24
2022-08-02T05:18:00.322Z,54.95
2022-08-02T05:19:00.179Z,52.53
2022-08-02T05:20:00.149Z,55.91
2022-08-02T05:21:00.124Z,55.11
2022-08-02T05:22:00.150Z,55.27
2022-08-02T05:23:00.089Z,55.75
2022-08-02T05:24:00.229Z,57.69
2022-08-02T05:25:00.140Z,55.11
2022-08-02T05:26:00.153Z,55.43
2022-08-02T05:27:00.081Z,55.27
2022-08-02T05:28:00.080Z,56.40
2022-08-02T05:29:00.074Z,55.75
2022-08-02T05:30:00.017Z,54.30
2022-08-02T05:31:00.033Z,56.56
2022-08-02T05:32:00.038Z,54.79
2022-08-02T05:32:59.935Z,54.62
2022-08-02T05:33:59.982Z,53.98
2022-08-02T05:34:59.961Z,57.69
2022-08-02T05:35:59.978Z,58.17
2022-08-02T05:36:59.941Z,58.17
2022-08-02T05:37:59.921Z,57.85
2022-08-02T05:39:05.108Z,57.69
2022-08-02T05:40:01.271Z,55.43
2022-08-02T05:40:59.901Z,55.43
2022-08-02T05:41:59.894Z,55.43
2022-08-02T05:42:59.986Z,58.01
2022-08-02T05:43:59.930Z,55.27
2022-08-02T05:45:00.034Z,56.40
2022-08-02T05:45:59.922Z,56.07
2022-08-02T05:46:59.991Z,55.43
2022-08-02T05:47:59.893Z,56.24
2022-08-02T05:48:59.878Z,55.11
2022-08-02T05:49:59.943Z,55.75
2022-08-02T05:50:59.875Z,53.66
2022-08-02T05:51:59.940Z,57.20
2022-08-02T05:52:59.901Z,56.88
2022-08-02T05:53:59.840Z,55.59
2022-08-02T05:54:59.886Z,54.95
2022-08-02T05:55:59.886Z,55.75
2022-08-02T05:56:59.826Z,56.24
2022-08-02T05:57:59.835Z,55.11
2022-08-02T05:58:59.839Z,55.43
2022-08-02T05:59:59.826Z,55.43
2022-08-02T06:00:59.846Z,55.59
2022-08-02T06:01:59.859Z,55.59
2022-08-02T06:02:59.825Z,55.11
2022-08-02T06:03:59.858Z,54.79
2022-08-02T06:04:59.799Z,54.30
2022-08-02T06:05:59.902Z,54.79
2022-08-02T06:06:59.760Z,57.52
2022-08-02T06:07:59.866Z,55.11
2022-08-02T06:08:59.821Z,55.75
2022-08-02T06:09:59.845Z,56.56
2022-08-02T06:10:59.761Z,55.43
2022-08-02T06:12:10.924Z,56.40
2022-08-02T06:13:00.752Z,55.91
2022-08-02T06:13:59.758Z,54.30
2022-08-02T06:14:59.756Z,56.24
2022-08-02T06:15:59.733Z,55.27
2022-08-02T06:16:59.736Z,54.62
2022-08-02T06:17:59.725Z,53.66
2022-08-02T06:18:59.716Z,53.17
2022-08-02T06:19:59.708Z,55.27
2022-08-02T06:22:30.469Z,57.04
2022-08-02T06:22:40.238Z,55.11
2022-08-02T06:23:00.613Z,53.98
2022-08-02T06:23:59.712Z,54.14
2022-08-02T06:24:59.540Z,55.75
2022-08-02T06:25:59.571Z,53.98
2022-08-02T06:26:59.582Z,53.66
2022-08-02T06:27:59.576Z,53.01
2022-08-02T06:28:59.662Z,53.82
2022-08-02T06:29:59.523Z,53.01
2022-08-02T06:30:59.513Z,53.01
2022-08-02T06:31:59.503Z,54.95
2022-08-02T06:32:59.743Z,55.91
2022-08-02T06:33:59.575Z,54.14
2022-08-02T06:34:59.575Z,53.98
2022-08-02T06:35:59.582Z,55.59
2022-08-02T06:36:59.603Z,54.30
2022-08-02T06:37:59.598Z,52.69
2022-08-02T06:38:59.524Z,54.46
2022-08-02T06:39:59.563Z,55.43
2022-08-02T06:40:59.536Z,55.43
2022-08-02T06:41:59.448Z,54.95
2022-08-02T06:42:59.528Z,53.50
2022-08-02T06:44:13.675Z,55.43
2022-08-02T06:45:00.439Z,55.43
2022-08-02T06:47:09.156Z,53.50
2022-08-02T06:47:11.744Z,53.98
2022-08-02T06:48:00.415Z,53.33
2022-08-02T06:48:59.493Z,52.53
2022-08-02T06:49:59.572Z,53.17
2022-08-02T06:50:59.451Z,53.82
2022-08-02T06:51:59.482Z,53.82
2022-08-02T06:52:59.448Z,53.50
2022-08-02T06:53:59.473Z,52.53
2022-08-02T06:54:59.448Z,51.08
2022-08-02T06:55:59.488Z,52.21
2022-08-02T06:56:59.418Z,53.98
2022-08-02T06:57:59.440Z,52.21
2022-08-02T06:59:03.115Z,53.98
2022-08-02T07:00:00.395Z,54.30
2022-08-02T07:00:59.419Z,56.07
2022-08-02T07:01:59.409Z,53.17
2022-08-02T07:02:59.367Z,51.56
2022-08-02T07:03:59.432Z,52.21
2022-08-02T07:04:59.383Z,52.05
2022-08-02T07:05:59.347Z,53.50
2022-08-02T07:06:59.317Z,52.69
2022-08-02T07:07:59.417Z,51.08
2022-08-02T07:09:19.443Z,50.92
2022-08-02T07:10:01.988Z,52.53
2022-08-02T07:10:59.354Z,51.40
2022-08-02T07:11:59.315Z,51.72
2022-08-02T07:12:59.991Z,52.05
2022-08-02T07:14:00.310Z,51.72
2022-08-02T07:14:59.429Z,51.40
2022-08-02T07:15:59.310Z,52.05
2022-08-02T07:16:59.280Z,49.47
2022-08-02T07:17:59.240Z,51.24
2022-08-02T07:18:59.262Z,48.66
2022-08-02T07:19:59.298Z,51.56
2022-08-02T07:20:59.723Z,48.50
2022-08-02T07:22:00.607Z,53.33
2022-08-02T07:22:59.165Z,54.14
2022-08-02T07:23:59.149Z,49.15
2022-08-02T07:24:59.138Z,53.01
2022-08-02T07:26:03.025Z,50.76
2022-08-02T07:27:13.728Z,53.01
2022-08-02T07:28:01.091Z,48.98
2022-08-02T07:28:59.119Z,53.98
2022-08-02T07:29:59.103Z,53.82
2022-08-02T07:30:59.096Z,50.43
2022-08-02T07:31:59.080Z,52.69
2022-08-02T07:32:59.100Z,50.76
2022-08-02T07:33:59.073Z,48.66
2022-08-02T07:34:59.066Z,50.76
2022-08-02T07:35:59.095Z,52.05
2022-08-02T07:36:59.062Z,50.92
2022-08-02T07:38:01.861Z,51.40
2022-08-02T07:38:59.022Z,50.92
2022-08-02T07:39:59.112Z,48.18
2022-08-02T07:40:59.165Z,49.47
2022-08-02T07:41:59.014Z,50.92
2022-08-02T07:43:03.577Z,52.37
2022-08-02T07:44:01.003Z,49.47
2022-08-02T07:44:59.066Z,51.72
2022-08-02T07:46:00.666Z,52.37
2022-08-02T07:46:59.072Z,46.73
2022-08-02T07:47:59.038Z,48.98
2022-08-02T07:48:59.130Z,52.53
2022-08-02T07:49:59.060Z,50.43
2022-08-02T07:50:59.027Z,50.92
2022-08-02T07:51:59.175Z,50.27
2022-08-02T07:52:59.009Z,50.76
2022-08-02T07:54:02.574Z,50.27
2022-08-02T07:55:00.007Z,50.11
2022-08-02T07:55:59.079Z,51.24
2022-08-02T07:56:59.072Z,51.40
2022-08-02T07:57:59.076Z,51.08
2022-08-02T07:58:58.997Z,51.40
2022-08-02T07:59:58.923Z,51.40
2022-08-02T08:00:58.898Z,51.40
2022-08-02T08:01:58.861Z,52.37
2022-08-02T08:02:59.022Z,51.24
2022-08-02T08:03:59.839Z,50.11
2022-08-02T08:04:58.888Z,49.79
2022-08-02T08:05:58.828Z,48.18
2022-08-02T08:06:58.914Z,48.98
2022-08-02T08:07:58.847Z,49.31
2022-08-02T08:08:58.807Z,48.98
2022-08-02T08:09:58.798Z,49.47
2022-08-02T08:10:58.786Z,50.92
2022-08-02T08:11:58.898Z,51.24
2022-08-02T08:12:58.991Z,52.53
2022-08-02T08:13:58.873Z,49.63
2022-08-02T08:14:58.903Z,51.88
2022-08-02T08:15:58.845Z,51.56
2022-08-02T08:16:58.923Z,49.79
2022-08-02T08:17:58.897Z,49.31
2022-08-02T08:18:58.897Z,49.95
2022-08-02T08:19:58.809Z,48.98
2022-08-02T08:20:58.914Z,49.47
2022-08-02T08:21:59.847Z,48.82
2022-08-02T08:22:58.788Z,48.98
2022-08-02T08:23:58.860Z,49.31
2022-08-02T08:24:58.767Z,52.37
2022-08-02T08:25:58.690Z,52.21
2022-08-02T08:26:58.658Z,51.40
2022-08-02T08:27:58.654Z,53.01
2022-08-02T08:28:58.711Z,52.53
2022-08-02T08:29:58.710Z,52.85
2022-08-02T08:30:58.732Z,52.05
2022-08-02T08:31:58.760Z,52.53
2022-08-02T08:32:58.747Z,52.85
2022-08-02T08:33:58.752Z,51.40
2022-08-02T08:34:58.701Z,52.37
2022-08-02T08:35:58.709Z,51.40
2022-08-02T08:36:58.721Z,51.40
2022-08-02T08:37:58.753Z,52.05
2022-08-02T08:38:58.732Z,46.41
2022-08-02T08:39:59.102Z,47.05
2022-08-02T08:40:59.684Z,45.92
2022-08-02T08:41:58.738Z,46.25
2022-08-02T08:42:58.664Z,46.57
2022-08-02T08:43:58.831Z,50.60
2022-08-02T08:44:59.048Z,47.70
2022-08-02T08:45:58.596Z,46.41
2022-08-02T08:46:58.602Z,45.12
2022-08-02T08:47:58.635Z,47.21
2022-08-02T08:48:58.643Z,45.92
2022-08-02T08:49:58.683Z,48.50
2022-08-02T08:50:58.651Z,47.21
2022-08-02T08:51:58.580Z,46.41
2022-08-02T08:52:58.569Z,48.34
2022-08-02T08:53:58.590Z,50.11
2022-08-02T08:54:59.296Z,50.27
2022-08-02T08:55:58.480Z,49.47
2022-08-02T08:56:58.504Z,49.47
2022-08-02T08:57:58.458Z,50.92
2022-08-02T08:58:58.454Z,50.60
2022-08-02T08:59:58.573Z,49.63
2022-08-02T09:00:59.543Z,49.31
2022-08-02T09:01:58.447Z,49.79
2022-08-02T09:02:59.406Z,49.63
2022-08-02T09:03:58.413Z,49.63
2022-08-02T09:04:58.626Z,49.47
2022-08-02T09:05:58.517Z,49.31
2022-08-02T09:06:58.630Z,49.47
2022-08-02T09:07:58.479Z,49.95
2022-08-02T09:08:58.497Z,49.95
2022-08-02T09:09:58.506Z,45.92
2022-08-02T09:10:58.583Z,45.76
2022-08-02T09:11:58.519Z,47.05
2022-08-02T09:12:58.485Z,47.21
2022-08-02T09:13:58.469Z,46.57
2022-08-02T09:14:58.468Z,49.47
2022-08-02T09:15:58.505Z,49.15
2022-08-02T09:16:58.446Z,49.47
2022-08-02T09:17:58.386Z,50.27
2022-08-02T09:18:58.410Z,50.76
2022-08-02T09:19:58.345Z,50.27
2022-08-02T09:20:58.408Z,50.60
2022-08-02T09:21:58.305Z,49.31
2022-08-02T09:22:58.362Z,49.47
2022-08-02T09:23:58.288Z,49.79
2022-08-02T09:24:58.353Z,49.79
2022-08-02T09:26:02.457Z,50.27
2022-08-02T09:26:59.424Z,50.11
2022-08-02T09:27:58.430Z,50.27
2022-08-02T09:28:58.337Z,49.47
2022-08-02T09:30:11.962Z,49.95
2022-08-02T09:31:00.254Z,49.15
2022-08-02T09:31:58.361Z,49.63
2022-08-02T09:32:58.341Z,49.63
2022-08-02T09:33:59.368Z,49.95
2022-08-02T09:34:58.364Z,48.82
2022-08-02T09:36:05.202Z,49.31
2022-08-02T09:36:59.284Z,49.31
2022-08-02T09:37:58.300Z,49.47
2022-08-02T09:38:58.288Z,50.92
2022-08-02T09:39:59.787Z,49.79
2022-08-02T09:40:58.271Z,50.11
2022-08-02T09:41:58.252Z,49.79
2022-08-02T09:42:58.304Z,49.63
2022-08-02T09:44:04.502Z,49.63
2022-08-02T09:44:59.329Z,51.08
2022-08-02T09:45:58.239Z,49.63
2022-08-02T09:46:58.365Z,50.60
2022-08-02T09:47:58.241Z,49.95
2022-08-02T09:48:58.328Z,49.47
2022-08-02T09:49:58.239Z,49.15
2022-08-02T09:50:58.139Z,50.11
2022-08-02T09:51:58.109Z,50.92
2022-08-02T09:52:58.134Z,51.08
2022-08-02T09:54:08.009Z,50.11
2022-08-02T09:55:00.130Z,51.08
2022-08-02T09:55:58.084Z,50.43
2022-08-02T09:56:58.004Z,49.79
2022-08-02T09:57:58.061Z,50.43
2022-08-02T09:58:57.986Z,49.47
2022-08-02T09:59:58.118Z,49.47
2022-08-02T10:00:58.050Z,51.24
2022-08-02T10:02:01.333Z,49.95
2022-08-02T10:02:59.012Z,50.92
2022-08-02T10:03:57.954Z,51.40
2022-08-02T10:04:57.909Z,49.31
2022-08-02T10:06:02.210Z,51.72
2022-08-02T10:06:58.032Z,49.31
2022-08-02T10:07:58.059Z,49.15
2022-08-02T10:08:58.134Z,46.08
2022-08-02T10:09:58.142Z,44.47
2022-08-02T10:10:58.128Z,45.12
2022-08-02T10:14:56.533Z,46.08
2022-08-02T10:15:56.405Z,48.66
2022-08-02T10:16:56.519Z,48.34
2022-08-02T10:17:56.467Z,50.27
2022-08-02T10:18:56.413Z,51.40
2022-08-02T10:20:01.899Z,49.47
2022-08-02T10:20:57.343Z,49.47
2022-08-02T10:21:56.404Z,48.66
2022-08-02T10:22:56.425Z,48.02
2022-08-02T10:23:56.434Z,47.86
2022-08-02T10:24:56.377Z,46.25
2022-08-02T10:25:56.341Z,46.57
2022-08-02T10:26:56.328Z,49.63
2022-08-02T10:28:05.231Z,47.70
2022-08-02T10:28:58.307Z,51.24
2022-08-02T10:29:56.344Z,49.47
2022-08-02T10:30:56.363Z,46.57
2022-08-02T10:31:56.328Z,48.82
2022-08-02T10:32:56.300Z,45.60
2022-08-02T10:33:56.326Z,50.60
2022-08-02T10:34:56.304Z,50.76
2022-08-02T10:36:07.314Z,49.31
2022-08-02T10:36:57.270Z,50.43
2022-08-02T10:37:56.333Z,48.50
2022-08-02T10:38:56.264Z,48.50
2022-08-02T10:39:56.434Z,53.66
2022-08-02T10:40:56.232Z,53.33
2022-08-02T10:41:56.147Z,51.72
2022-08-02T10:42:56.198Z,48.50
2022-08-02T10:43:56.223Z,52.53
2022-08-02T10:44:56.368Z,51.72
2022-08-02T10:45:56.272Z,48.02
2022-08-02T10:46:56.282Z,50.11
2022-08-02T10:47:56.238Z,50.27
2022-08-02T10:48:56.273Z,46.73
2022-08-02T10:49:56.231Z,49.47
2022-08-02T10:50:56.279Z,49.15
2022-08-02T10:51:56.134Z,45.76
2022-08-02T10:52:56.095Z,51.40
2022-08-02T10:53:56.133Z,47.70
2022-08-02T10:54:56.414Z,48.82
2022-08-02T10:55:56.163Z,49.79
2022-08-02T10:56:56.087Z,49.31
2022-08-02T10:57:56.055Z,50.76
2022-08-02T10:58:56.066Z,47.37
2022-08-02T10:59:56.079Z,49.95
2022-08-02T11:00:56.192Z,50.92
2022-08-02T11:01:56.026Z,50.27
2022-08-02T11:02:57.046Z,51.72
2022-08-02T11:03:56.032Z,52.53
2022-08-02T11:04:56.124Z,50.11
2022-08-02T11:05:56.347Z,49.63
2022-08-02T11:06:56.091Z,46.08
2022-08-02T11:07:56.088Z,46.57
2022-08-02T11:08:56.081Z,46.41
2022-08-02T11:09:56.079Z,46.41
2022-08-02T11:10:56.077Z,47.86
2022-08-02T11:11:56.154Z,46.73
2022-08-02T11:12:56.131Z,47.86
2022-08-02T11:13:56.146Z,47.21
2022-08-02T11:14:56.112Z,48.98
2022-08-02T11:15:56.048Z,44.96
2022-08-02T11:16:56.051Z,45.44
2022-08-02T11:17:56.038Z,43.99
2022-08-02T11:18:56.005Z,48.02
2022-08-02T11:19:56.012Z,48.18
2022-08-02T11:20:56.025Z,45.44
2022-08-02T11:21:56.065Z,46.25
2022-08-02T11:22:55.978Z,48.98
2022-08-02T11:23:56.343Z,49.79
2022-08-02T11:24:56.017Z,43.18
2022-08-02T11:26:03.702Z,47.05
2022-08-02T11:26:57.877Z,45.60
2022-08-02T11:27:55.967Z,47.53
2022-08-02T11:28:56.086Z,45.76
2022-08-02T11:29:55.988Z,48.18
2022-08-02T11:30:55.960Z,45.92
2022-08-02T11:31:55.935Z,47.53
2022-08-02T11:32:55.979Z,43.83
2022-08-02T11:33:55.913Z,47.86
2022-08-02T11:34:55.920Z,49.63
2022-08-02T11:35:55.900Z,47.05
2022-08-02T11:36:55.928Z,48.66
2022-08-02T11:37:56.220Z,44.96
2022-08-02T11:38:55.912Z,45.76
2022-08-02T11:39:55.864Z,47.86
2022-08-02T11:40:57.315Z,44.15
2022-08-02T11:41:55.819Z,47.05
2022-08-02T11:42:55.938Z,43.67
2022-08-02T11:43:55.907Z,44.31
2022-08-02T11:44:55.989Z,42.22
2022-08-02T11:45:55.753Z,44.96
2022-08-02T11:46:55.770Z,48.82
2022-08-02T11:47:55.773Z,47.05
2022-08-02T11:48:55.796Z,44.96
2022-08-02T11:49:55.694Z,49.63
2022-08-02T11:50:55.675Z,48.18
2022-08-02T11:51:55.830Z,49.63
2022-08-02T11:52:55.662Z,49.31
2022-08-02T11:53:55.734Z,48.98
2022-08-02T11:54:55.657Z,46.08
2022-08-02T11:55:55.702Z,46.08
2022-08-02T11:56:55.743Z,44.96
2022-08-02T11:58:04.186Z,45.44
2022-08-02T11:58:56.754Z,42.54
2022-08-02T11:59:55.723Z,45.60
2022-08-02T12:00:55.797Z,45.44
2022-08-02T12:01:55.729Z,48.02
2022-08-02T12:02:55.767Z,45.92
2022-08-02T12:03:55.678Z,49.47
2022-08-02T12:04:57.954Z,48.50
2022-08-02T12:06:04.945Z,46.73
2022-08-02T12:06:56.880Z,48.82
2022-08-02T12:07:55.681Z,49.47
2022-08-02T12:08:55.677Z,45.44
2022-08-02T12:09:55.717Z,48.66
2022-08-02T12:10:55.622Z,46.41
2022-08-02T12:11:55.709Z,48.66
2022-08-02T12:12:55.699Z,50.92
2022-08-02T12:13:56.990Z,46.57
2022-08-02T12:14:55.670Z,48.98
2022-08-02T12:15:55.708Z,46.89
2022-08-02T12:16:55.637Z,45.28
2022-08-02T12:17:55.625Z,46.57
2022-08-02T12:18:55.609Z,48.82
2022-08-02T12:19:55.646Z,49.95
2022-08-02T12:20:55.644Z,47.05
2022-08-02T12:21:55.605Z,44.63
2022-08-02T12:22:55.555Z,44.96
2022-08-02T12:23:59.540Z,45.76
2022-08-02T12:24:56.572Z,47.37
2022-08-02T12:25:55.646Z,46.08
2022-08-02T12:26:58.415Z,47.70
2022-08-02T12:27:55.554Z,43.67
2022-08-02T12:28:55.532Z,47.05
2022-08-02T12:29:58.430Z,44.63
2022-08-02T12:30:55.547Z,49.47
2022-08-02T12:31:56.314Z,45.12
2022-08-02T12:32:55.573Z,46.41
2022-08-02T12:33:55.465Z,48.50
2022-08-02T12:34:55.510Z,45.28
2022-08-02T12:35:55.473Z,43.51
2022-08-02T12:36:55.562Z,42.70
2022-08-02T12:37:55.466Z,42.54
2022-08-02T12:38:55.619Z,42.22
2022-08-02T12:39:55.476Z,43.34
2022-08-02T12:40:55.460Z,43.18
2022-08-02T12:41:55.651Z,42.86
2022-08-02T12:42:56.349Z,43.67
2022-08-02T12:43:55.431Z,42.22
2022-08-02T12:44:55.391Z,43.67
2022-08-02T12:45:55.399Z,44.79
2022-08-02T12:46:55.452Z,46.08
2022-08-02T12:47:55.389Z,48.34
2022-08-02T12:49:17.890Z,47.53
2022-08-02T12:49:57.352Z,47.70
2022-08-02T12:50:55.271Z,43.83
2022-08-02T12:51:57.628Z,44.47
2022-08-02T12:52:55.304Z,47.53
2022-08-02T12:53:58.817Z,48.34
2022-08-02T12:54:55.257Z,48.98
2022-08-02T12:56:02.452Z,49.31
2022-08-02T12:56:56.471Z,47.86
2022-08-02T12:57:55.381Z,44.96
2022-08-02T12:58:55.344Z,48.98
2022-08-02T12:59:55.268Z,45.76
2022-08-02T13:00:55.278Z,49.63
2022-08-02T13:01:56.399Z,49.63
2022-08-02T13:02:55.429Z,50.43
2022-08-02T13:04:09.710Z,49.47
2022-08-02T13:04:56.221Z,47.86
2022-08-02T13:05:57.138Z,47.05